createdAt,value
2019-03-05T00:00:22.635Z,100.00
2019-03-05T00:02:48.945Z,100.00
2019-03-05T00:05:15.284Z,100.00
2019-03-05T00:07:41.596Z,100.00
2019-03-05T00:10:07.899Z,100.00
2019-03-05T00:12:34.212Z,100.00
2019-03-05T00:15:00.519Z,100.00
2019-03-05T00:17:26.842Z,100.00
2019-03-05T00:19:53.140Z,100.00
2019-03-05T00:22:19.487Z,100.00
2019-03-05T00:24:45.803Z,100.00
2019-03-05T00:27:12.123Z,100.00
2019-03-05T00:29:38.436Z,100.00
2019-03-05T00:32:04.747Z,100.00
2019-03-05T00:34:31.101Z,100.00
2019-03-05T00:36:57.410Z,100.00
2019-03-05T00:39:23.719Z,100.00
2019-03-05T00:41:50.037Z,100.00
2019-03-05T00:44:16.352Z,100.00
2019-03-05T00:46:42.675Z,100.00
2019-03-05T00:49:08.991Z,100.00
2019-03-05T00:51:35.296Z,100.00
2019-03-05T00:54:01.626Z,100.00
2019-03-05T00:56:27.933Z,100.00
2019-03-05T00:58:54.341Z,100.00
2019-03-05T01:01:20.582Z,100.00
2019-03-05T01:03:46.892Z,100.00
2019-03-05T01:06:13.208Z,100.00
2019-03-05T01:08:39.523Z,100.00
2019-03-05T01:11:05.837Z,100.00
2019-03-05T01:13:32.153Z,100.00
2019-03-05T01:15:58.463Z,100.00
2019-03-05T01:18:24.791Z,100.00
2019-03-05T01:20:51.100Z,100.00
2019-03-05T01:23:17.409Z,100.00
2019-03-05T01:25:43.730Z,100.00
2019-03-05T01:28:10.044Z,100.00
2019-03-05T01:30:36.358Z,100.00
2019-03-05T01:33:02.670Z,100.00
2019-03-05T01:35:28.977Z,100.00
2019-03-05T01:37:55.286Z,100.00
2019-03-05T01:40:21.658Z,100.00
2019-03-05T01:42:47.901Z,100.00
2019-03-05T01:45:14.212Z,100.00
2019-03-05T01:47:40.515Z,100.00
2019-03-05T01:50:06.826Z,100.00
2019-03-05T01:52:33.134Z,100.00
2019-03-05T01:54:59.436Z,100.00
2019-03-05T01:57:25.743Z,100.00
2019-03-05T01:59:52.065Z,100.00
2019-03-05T02:02:18.364Z,100.00
2019-03-05T02:04:44.675Z,100.00
2019-03-05T02:07:10.992Z,100.00
2019-03-05T02:09:37.292Z,100.00
2019-03-05T02:12:03.611Z,100.00
2019-03-05T02:14:29.916Z,100.00
2019-03-05T02:16:56.225Z,100.00
2019-03-05T02:19:22.537Z,100.00
2019-03-05T02:21:48.852Z,100.00
2019-03-05T02:24:15.198Z,100.00
2019-03-05T02:26:41.478Z,100.00
2019-03-05T02:29:07.783Z,100.00
2019-03-05T02:31:34.132Z,100.00
2019-03-05T02:34:00.442Z,100.00
2019-03-05T02:36:26.742Z,100.00
2019-03-05T02:38:53.063Z,100.00
2019-03-05T02:41:19.374Z,100.00
2019-03-05T02:43:45.679Z,100.00
2019-03-05T02:46:12.101Z,100.00
2019-03-05T02:48:38.296Z,100.00
2019-03-05T02:51:04.607Z,100.00
2019-03-05T02:53:30.920Z,100.00
2019-03-05T02:55:57.227Z,100.00
2019-03-05T02:58:23.542Z,100.00
2019-03-05T03:00:49.846Z,100.00
2019-03-05T03:03:16.177Z,100.00
2019-03-05T03:05:42.482Z,100.00
2019-03-05T03:08:08.955Z,100.00
2019-03-05T03:10:35.116Z,100.00
2019-03-05T03:13:01.429Z,100.00
2019-03-05T03:15:27.739Z,100.00
2019-03-05T03:17:54.044Z,100.00
2019-03-05T03:20:20.362Z,100.00
2019-03-05T03:22:46.662Z,100.00
2019-03-05T03:25:12.968Z,100.00
2019-03-05T03:27:39.283Z,100.00
2019-03-05T03:30:05.622Z,100.00
2019-03-05T03:32:31.893Z,100.00
2019-03-05T03:34:58.206Z,100.00
2019-03-05T03:37:24.517Z,100.00
2019-03-05T03:39:50.824Z,100.00
2019-03-05T03:42:17.131Z,100.00
2019-03-05T03:44:43.441Z,100.00
2019-03-05T03:47:09.749Z,100.00
2019-03-05T03:49:36.054Z,100.00
2019-03-05T03:52:02.367Z,100.00
2019-03-05T03:54:28.680Z,100.00
2019-03-05T03:56:54.986Z,100.00
2019-03-05T03:59:21.304Z,100.00
2019-03-05T04:01:47.610Z,100.00
2019-03-05T04:04:13.919Z,100.00
2019-03-05T04:06:40.225Z,100.00
2019-03-05T04:09:06.540Z,100.00
2019-03-05T04:11:32.856Z,100.00
2019-03-05T04:13:59.833Z,100.00
2019-03-05T04:16:25.470Z,100.00
2019-03-05T04:18:51.789Z,100.00
2019-03-05T04:21:20.027Z,100.00
2019-03-05T04:23:44.406Z,100.00
2019-03-05T04:26:10.712Z,100.00
2019-03-05T04:28:37.025Z,100.00
2019-03-05T04:31:03.332Z,100.00
2019-03-05T04:33:29.637Z,100.00
2019-03-05T04:35:55.955Z,100.00
2019-03-05T04:38:22.260Z,100.00
2019-03-05T04:40:48.577Z,100.00
2019-03-05T04:43:14.880Z,100.00
2019-03-05T04:45:41.193Z,100.00
2019-03-05T04:48:07.507Z,100.00
2019-03-05T04:50:33.819Z,100.00
2019-03-05T04:53:00.129Z,100.00
2019-03-05T04:55:26.440Z,100.00
2019-03-05T04:57:52.753Z,100.00
2019-03-05T05:00:19.076Z,100.00
2019-03-05T05:02:45.393Z,100.00
2019-03-05T05:05:11.699Z,100.00
2019-03-05T05:07:38.012Z,100.00
2019-03-05T05:10:04.324Z,100.00
2019-03-05T05:12:30.637Z,100.00
2019-03-05T05:14:56.947Z,100.00
2019-03-05T05:17:23.257Z,100.00
2019-03-05T05:19:49.568Z,100.00
2019-03-05T05:22:15.875Z,100.00
2019-03-05T05:24:42.190Z,100.00
2019-03-05T05:27:08.503Z,100.00
2019-03-05T05:29:34.888Z,100.00
2019-03-05T05:32:01.203Z,100.00
2019-03-05T05:34:27.506Z,100.00
2019-03-05T05:36:53.812Z,100.00
2019-03-05T05:39:20.121Z,100.00
2019-03-05T05:41:46.444Z,100.00
2019-03-05T05:44:12.749Z,100.00
2019-03-05T05:46:39.064Z,100.00
2019-03-05T05:49:05.369Z,100.00
2019-03-05T05:51:31.683Z,100.00
2019-03-05T05:53:57.993Z,100.00
2019-03-05T05:56:24.299Z,100.00
2019-03-05T05:58:50.930Z,100.00
2019-03-05T06:01:17.249Z,100.00
2019-03-05T06:03:43.569Z,100.00
2019-03-05T06:06:09.876Z,100.00
2019-03-05T06:08:36.234Z,100.00
2019-03-05T06:11:02.545Z,100.00
2019-03-05T06:13:28.858Z,100.00
2019-03-05T06:15:55.253Z,100.00
2019-03-05T06:18:21.699Z,100.00
2019-03-05T06:20:47.972Z,100.00
2019-03-05T06:23:14.319Z,100.00
2019-03-05T06:25:40.636Z,100.00
2019-03-05T06:28:06.936Z,100.00
2019-03-05T06:30:33.252Z,100.00
2019-03-05T06:32:59.611Z,100.00
2019-03-05T06:35:26.032Z,100.00
2019-03-05T06:37:52.469Z,100.00
2019-03-05T06:40:18.800Z,100.00
2019-03-05T06:42:45.242Z,100.00
2019-03-05T06:45:11.578Z,100.00
2019-03-05T06:47:37.890Z,100.00
2019-03-05T06:50:04.218Z,100.00
2019-03-05T06:52:30.543Z,100.00
2019-03-05T06:54:56.891Z,100.00
2019-03-05T06:57:23.273Z,100.00
2019-03-05T06:59:49.837Z,100.00
2019-03-05T07:02:16.157Z,100.00
2019-03-05T07:04:42.466Z,100.00
2019-03-05T07:07:08.772Z,100.00
2019-03-05T07:09:35.082Z,100.00
2019-03-05T07:12:01.394Z,100.00
2019-03-05T07:14:27.702Z,100.00
2019-03-05T07:16:54.017Z,100.00
2019-03-05T07:19:20.337Z,100.00
2019-03-05T07:21:46.701Z,100.00
2019-03-05T07:24:13.021Z,100.00
2019-03-05T07:26:39.330Z,100.00
2019-03-05T07:29:07.497Z,100.00
2019-03-05T07:31:31.992Z,100.00
2019-03-05T07:33:58.546Z,100.00
2019-03-05T07:36:24.890Z,100.00
2019-03-05T07:38:51.166Z,100.00
2019-03-05T07:41:17.478Z,100.00
2019-03-05T07:43:43.826Z,100.00
2019-03-05T07:46:10.148Z,100.00
2019-03-05T07:48:36.459Z,100.00
2019-03-05T07:51:02.806Z,100.00
2019-03-05T07:53:29.245Z,100.00
2019-03-05T07:55:55.559Z,100.00
2019-03-05T07:58:21.871Z,100.00
2019-03-05T08:00:48.184Z,100.00
2019-03-05T08:03:14.517Z,100.00
2019-03-05T08:05:40.831Z,100.00
2019-03-05T08:08:07.143Z,100.00
2019-03-05T08:10:33.461Z,100.00
2019-03-05T08:12:59.825Z,100.00
2019-03-05T08:15:26.135Z,100.00
2019-03-05T08:17:52.445Z,100.00
2019-03-05T08:20:18.894Z,100.00
2019-03-05T08:22:45.207Z,100.00
2019-03-05T08:25:11.567Z,100.00
2019-03-05T08:27:37.878Z,100.00
2019-03-05T08:30:13.774Z,98.99
2019-03-05T08:32:30.512Z,95.93
2019-03-05T08:34:56.934Z,90.71
2019-03-05T08:37:23.161Z,89.73
2019-03-05T08:39:49.477Z,89.69
2019-03-05T08:42:15.791Z,87.72
2019-03-05T08:44:49.980Z,83.65
2019-03-05T08:47:08.445Z,78.10
2019-03-05T08:49:34.778Z,75.93
2019-03-05T08:52:01.126Z,74.72
2019-03-05T08:54:27.439Z,73.22
2019-03-05T08:56:53.769Z,72.83
2019-03-05T08:59:20.078Z,72.40
2019-03-05T09:01:46.397Z,71.87
2019-03-05T09:04:12.707Z,73.05
2019-03-05T09:06:39.069Z,70.38
2019-03-05T09:09:05.385Z,66.65
2019-03-05T09:11:31.710Z,63.58
2019-03-05T09:13:58.028Z,63.32
2019-03-05T09:16:24.344Z,63.18
2019-03-05T09:18:50.672Z,61.93
2019-03-05T09:21:16.987Z,60.85
2019-03-05T09:23:43.298Z,60.06
2019-03-05T09:26:09.619Z,58.98
2019-03-05T09:28:35.938Z,57.80
2019-03-05T09:31:02.254Z,57.73
2019-03-05T09:33:28.577Z,57.67
2019-03-05T09:35:55.164Z,58.30
2019-03-05T09:38:21.435Z,55.25
2019-03-05T09:40:47.767Z,52.73
2019-03-05T09:43:14.109Z,52.55
2019-03-05T09:45:40.440Z,53.21
2019-03-05T09:48:06.731Z,52.07
2019-03-05T09:50:33.049Z,51.56
2019-03-05T09:52:59.359Z,51.50
2019-03-05T09:55:25.720Z,51.48
2019-03-05T09:57:52.056Z,49.42
2019-03-05T10:00:18.934Z,48.02
2019-03-05T10:02:45.257Z,48.15
2019-03-05T10:05:11.586Z,49.25
2019-03-05T10:10:25.092Z,48.26
2019-03-05T10:12:51.422Z,48.07
2019-03-05T10:15:28.705Z,45.59
2019-03-05T10:17:54.122Z,44.28
2019-03-05T10:20:20.447Z,43.92
2019-03-05T10:22:46.750Z,43.83
2019-03-05T10:25:13.087Z,43.78
2019-03-05T10:27:39.364Z,43.39
2019-03-05T10:30:05.670Z,44.09
2019-03-05T10:32:31.979Z,42.60
2019-03-05T10:34:58.288Z,41.72
2019-03-05T10:37:24.592Z,41.94
2019-03-05T10:39:50.917Z,41.31
2019-03-05T10:42:17.216Z,41.13
2019-03-05T10:44:43.528Z,41.12
2019-03-05T10:47:09.835Z,41.27
2019-03-05T10:49:36.140Z,40.30
2019-03-05T10:52:02.449Z,40.27
2019-03-05T10:54:28.764Z,40.71
2019-03-05T10:56:55.071Z,39.76
2019-03-05T10:59:21.386Z,40.57
2019-03-05T11:01:47.707Z,40.83
2019-03-05T11:04:14.019Z,40.95
2019-03-05T11:06:40.325Z,40.78
2019-03-05T11:09:06.644Z,41.69
2019-03-05T11:11:32.951Z,42.74
2019-03-05T11:13:59.275Z,42.48
2019-03-05T11:16:30.669Z,43.23
2019-03-05T11:18:51.920Z,42.62
2019-03-05T11:21:18.229Z,42.81
2019-03-05T11:23:44.537Z,42.93
2019-03-05T11:26:10.843Z,43.52
2019-03-05T11:28:37.207Z,43.94
2019-03-05T11:31:03.597Z,43.76
2019-03-05T11:33:29.907Z,44.34
2019-03-05T11:35:56.215Z,44.14
2019-03-05T11:38:22.528Z,44.00
2019-03-05T11:40:48.853Z,44.09
2019-03-05T11:43:15.163Z,43.76
2019-03-05T11:45:41.479Z,43.91
2019-03-05T11:48:07.789Z,43.91
2019-03-05T11:50:34.104Z,44.01
2019-03-05T11:53:00.416Z,44.18
2019-03-05T11:55:26.770Z,43.85
2019-03-05T11:57:53.075Z,43.86
2019-03-05T12:00:19.421Z,44.41
2019-03-05T12:02:45.754Z,44.69
2019-03-05T12:05:12.066Z,45.12
2019-03-05T12:07:38.418Z,44.84
2019-03-05T12:10:04.729Z,44.48
2019-03-05T12:12:31.040Z,44.57
2019-03-05T12:14:57.376Z,44.62
2019-03-05T12:17:23.689Z,44.22
2019-03-05T12:19:49.995Z,44.67
2019-03-05T12:22:16.329Z,44.48
2019-03-05T12:24:42.632Z,44.52
2019-03-05T12:27:08.943Z,44.32
2019-03-05T12:29:35.268Z,45.42
2019-03-05T12:32:01.572Z,45.29
2019-03-05T12:34:27.875Z,45.00
2019-03-05T12:36:54.194Z,44.98
2019-03-05T12:39:20.503Z,44.54
2019-03-05T12:41:46.816Z,44.23
2019-03-05T12:44:13.128Z,44.57
2019-03-05T12:46:39.442Z,44.93
2019-03-05T12:49:05.750Z,44.85
2019-03-05T12:51:32.078Z,44.42
2019-03-05T12:53:58.396Z,44.34
2019-03-05T12:56:24.710Z,44.37
2019-03-05T12:58:51.029Z,43.91
2019-03-05T13:01:17.332Z,44.48
2019-03-05T13:03:43.641Z,44.72
2019-03-05T13:06:09.947Z,44.51
2019-03-05T13:08:36.257Z,44.38
2019-03-05T13:11:02.563Z,44.50
2019-03-05T13:13:28.874Z,44.84
2019-03-05T13:15:56.470Z,44.65
2019-03-05T13:18:21.499Z,44.35
2019-03-05T13:20:47.814Z,44.58
2019-03-05T13:23:14.130Z,44.67
2019-03-05T13:25:40.444Z,44.31
2019-03-05T13:28:06.749Z,44.34
2019-03-05T13:30:33.102Z,43.70
2019-03-05T13:33:00.766Z,44.08
2019-03-05T13:35:30.395Z,44.15
2019-03-05T13:37:52.026Z,43.79
2019-03-05T13:40:18.329Z,43.99
2019-03-05T13:42:44.658Z,43.92
2019-03-05T13:45:10.973Z,44.33
2019-03-05T13:47:41.528Z,44.31
2019-03-05T13:50:07.771Z,44.81
2019-03-05T13:52:32.170Z,44.27
2019-03-05T13:54:56.226Z,44.42
2019-03-05T13:57:22.583Z,44.65
2019-03-05T13:59:48.894Z,44.35
2019-03-05T14:02:15.199Z,44.54
2019-03-05T14:04:41.509Z,44.69
2019-03-05T14:07:07.824Z,44.40
2019-03-05T14:09:34.160Z,44.46
2019-03-05T14:12:00.456Z,44.46
2019-03-05T14:14:26.758Z,44.45
2019-03-05T14:16:53.060Z,44.44
2019-03-05T14:19:19.405Z,44.42
2019-03-05T14:21:45.706Z,44.21
2019-03-05T14:24:12.039Z,44.13
2019-03-05T14:26:38.331Z,44.62
2019-03-05T14:29:04.662Z,44.44
2019-03-05T14:31:30.957Z,44.87
2019-03-05T14:33:57.271Z,44.46
2019-03-05T14:36:23.576Z,44.49
2019-03-05T14:38:49.886Z,44.81
2019-03-05T14:41:16.234Z,44.71
2019-03-05T14:43:42.582Z,44.80
2019-03-05T14:46:08.867Z,44.44
2019-03-05T14:48:35.195Z,44.65
2019-03-05T14:51:01.501Z,44.66
2019-03-05T14:53:27.797Z,44.90
2019-03-05T14:55:54.630Z,44.91
2019-03-05T14:58:20.443Z,44.56
2019-03-05T15:00:46.754Z,44.99
2019-03-05T15:03:13.082Z,44.79
2019-03-05T15:05:39.386Z,45.01
2019-03-05T15:08:05.714Z,45.19
2019-03-05T15:10:32.034Z,44.91
2019-03-05T15:12:58.319Z,45.15
2019-03-05T15:15:24.701Z,45.35
2019-03-05T15:17:51.000Z,45.37
2019-03-05T15:20:17.500Z,45.49
2019-03-05T15:22:43.820Z,45.25
2019-03-05T15:25:10.138Z,44.70
2019-03-05T15:27:36.461Z,44.58
2019-03-05T15:30:02.818Z,44.71
2019-03-05T15:32:29.144Z,44.51
2019-03-05T15:34:55.449Z,44.49
2019-03-05T15:37:21.768Z,44.51
2019-03-05T15:39:48.135Z,44.11
2019-03-05T15:42:14.564Z,44.20
2019-03-05T15:44:40.733Z,44.20
2019-03-05T15:47:07.068Z,44.36
2019-03-05T15:49:33.434Z,44.51
2019-03-05T15:51:59.714Z,44.25
2019-03-05T15:54:26.014Z,44.38
2019-03-05T15:56:52.345Z,44.49
2019-03-05T15:59:18.669Z,44.67
2019-03-05T16:01:44.988Z,45.38
2019-03-05T16:04:11.281Z,45.39
2019-03-05T16:06:37.650Z,45.77
2019-03-05T16:09:03.957Z,45.54
2019-03-05T16:11:33.955Z,45.57
2019-03-05T16:13:57.946Z,46.01
2019-03-05T16:16:22.919Z,45.49
2019-03-05T16:18:49.227Z,45.79
2019-03-05T16:21:15.544Z,45.97
2019-03-05T16:23:41.856Z,46.02
2019-03-05T16:26:08.165Z,46.06
2019-03-05T16:28:34.497Z,46.16
2019-03-05T16:31:00.796Z,46.49
2019-03-05T16:33:27.107Z,46.70
2019-03-05T16:35:53.489Z,46.73
2019-03-05T16:38:20.154Z,46.73
2019-03-05T16:40:46.053Z,46.91
2019-03-05T16:43:12.361Z,47.45
2019-03-05T16:45:38.717Z,47.13
2019-03-05T16:48:05.055Z,47.63
2019-03-05T16:50:31.362Z,48.04
2019-03-05T16:52:57.683Z,47.87
2019-03-05T16:55:24.019Z,47.73
2019-03-05T16:57:50.315Z,47.85
2019-03-05T17:00:16.643Z,48.01
2019-03-05T17:02:42.968Z,47.70
2019-03-05T17:05:09.278Z,52.12
2019-03-05T17:07:35.585Z,63.24
2019-03-05T17:10:01.898Z,55.05
2019-03-05T17:12:28.233Z,54.18
2019-03-05T17:14:54.544Z,54.00
2019-03-05T17:17:20.856Z,54.45
2019-03-05T17:19:47.160Z,54.58
2019-03-05T17:22:13.488Z,55.08
2019-03-05T17:24:42.282Z,55.70
2019-03-05T17:27:08.600Z,56.45
2019-03-05T17:29:34.902Z,57.16
2019-03-05T17:32:01.204Z,57.91
2019-03-05T17:34:27.569Z,58.54
2019-03-05T17:36:53.877Z,59.23
2019-03-05T17:39:20.187Z,59.97
2019-03-05T17:41:46.501Z,60.68
2019-03-05T17:44:12.829Z,61.37
2019-03-05T17:46:39.178Z,62.00
2019-03-05T17:49:05.488Z,62.69
2019-03-05T17:51:31.788Z,63.38
2019-03-05T17:53:58.847Z,64.01
2019-03-05T17:56:25.153Z,64.70
2019-03-05T17:58:51.471Z,65.37
2019-03-05T18:01:17.775Z,66.07
2019-03-05T18:03:44.086Z,67.94
2019-03-05T18:06:10.403Z,69.95
2019-03-05T18:08:36.723Z,70.31
2019-03-05T18:11:03.028Z,71.00
2019-03-05T18:13:29.399Z,71.81
2019-03-05T18:15:55.706Z,72.72
2019-03-05T18:18:22.016Z,73.54
2019-03-05T18:20:48.330Z,74.45
2019-03-05T18:23:14.692Z,75.25
2019-03-05T18:25:41.007Z,75.99
2019-03-05T18:28:07.319Z,76.73
2019-03-05T18:30:33.629Z,77.48
2019-03-05T18:32:59.983Z,78.16
2019-03-05T18:35:27.349Z,78.91
2019-03-05T18:37:53.671Z,79.51
2019-03-05T18:40:20.017Z,80.08
2019-03-05T18:42:46.368Z,80.68
2019-03-05T18:45:12.683Z,81.21
2019-03-05T18:47:38.986Z,81.70
2019-03-05T18:50:05.294Z,82.25
2019-03-05T18:52:31.595Z,82.78
2019-03-05T18:54:57.910Z,83.36
2019-03-05T18:57:24.219Z,83.86
2019-03-05T18:59:50.617Z,84.38
2019-03-05T19:02:16.972Z,86.04
2019-03-05T19:04:43.278Z,85.97
2019-03-05T19:07:09.605Z,85.77
2019-03-05T19:09:35.911Z,86.10
2019-03-05T19:12:03.148Z,86.50
2019-03-05T19:14:29.459Z,87.00
2019-03-05T19:16:55.828Z,87.47
2019-03-05T19:19:22.138Z,87.85
2019-03-05T19:21:48.969Z,88.34
2019-03-05T19:24:15.282Z,88.90
2019-03-05T19:26:41.593Z,89.34
2019-03-05T19:29:07.903Z,89.65
2019-03-05T19:31:34.217Z,90.15
2019-03-05T19:34:00.528Z,90.55
2019-03-05T19:36:26.839Z,91.01
2019-03-05T19:38:53.162Z,91.49
2019-03-05T19:41:19.473Z,91.93
2019-03-05T19:43:45.833Z,92.35
2019-03-05T19:46:12.151Z,92.79
2019-03-05T19:48:38.463Z,93.12
2019-03-05T19:51:04.769Z,93.48
2019-03-05T19:53:31.097Z,93.92
2019-03-05T19:55:57.409Z,96.26
2019-03-05T19:58:23.724Z,100.00
2019-03-05T20:00:50.066Z,100.00
2019-03-05T20:03:16.378Z,100.00
2019-03-05T20:05:42.685Z,100.00
2019-03-05T20:08:09.001Z,100.00
2019-03-05T20:10:35.360Z,100.00
2019-03-05T20:13:01.675Z,100.00
2019-03-05T20:15:27.989Z,100.00
2019-03-05T20:17:58.878Z,100.00
2019-03-05T20:20:20.616Z,100.00
2019-03-05T20:22:46.933Z,100.00
2019-03-05T20:25:13.251Z,100.00
2019-03-05T20:27:39.570Z,100.00
2019-03-05T20:30:05.887Z,100.00
2019-03-05T20:32:32.209Z,100.00
2019-03-05T20:34:58.541Z,100.00
2019-03-05T20:37:24.859Z,100.00
2019-03-05T20:39:51.167Z,100.00
2019-03-05T20:42:17.493Z,100.00
2019-03-05T20:44:43.912Z,100.00
2019-03-05T20:47:10.461Z,100.00
2019-03-05T20:49:36.770Z,100.00
2019-03-05T20:52:03.110Z,100.00
2019-03-05T20:54:29.429Z,100.00
2019-03-05T20:56:55.741Z,100.00
2019-03-05T20:59:22.081Z,100.00
2019-03-05T21:01:48.395Z,100.00
2019-03-05T21:04:14.718Z,100.00
2019-03-05T21:06:41.033Z,100.00
2019-03-05T21:09:10.166Z,100.00
2019-03-05T21:11:36.522Z,100.00
2019-03-05T21:14:02.875Z,100.00
2019-03-05T21:16:29.153Z,100.00
2019-03-05T21:18:55.475Z,100.00
2019-03-05T21:21:21.782Z,100.00
2019-03-05T21:23:48.093Z,100.00
2019-03-05T21:26:14.416Z,100.00
2019-03-05T21:28:40.730Z,100.00
2019-03-05T21:31:07.040Z,100.00
2019-03-05T21:33:33.358Z,100.00
2019-03-05T21:35:59.668Z,100.00
2019-03-05T21:38:25.993Z,100.00
2019-03-05T21:40:59.744Z,100.00
2019-03-05T21:43:21.548Z,100.00
2019-03-05T21:45:47.873Z,100.00
2019-03-05T21:48:14.271Z,100.00
2019-03-05T21:50:40.594Z,100.00
2019-03-05T21:53:07.043Z,100.00
2019-03-05T21:55:33.396Z,100.00
2019-03-05T21:57:59.678Z,100.00
2019-03-05T22:00:25.991Z,100.00
2019-03-05T22:02:52.300Z,100.00
2019-03-05T22:05:18.611Z,100.00
2019-03-05T22:07:44.924Z,100.00
2019-03-05T22:10:11.294Z,100.00
2019-03-05T22:12:37.605Z,100.00
2019-03-05T22:15:03.924Z,100.00
2019-03-05T22:17:30.244Z,100.00
2019-03-05T22:19:56.616Z,100.00
2019-03-05T22:22:22.929Z,100.00
2019-03-05T22:24:49.320Z,100.00
2019-03-05T22:27:15.634Z,100.00
2019-03-05T22:29:41.946Z,100.00
2019-03-05T22:32:08.256Z,100.00
2019-03-05T22:34:34.575Z,100.00
2019-03-05T22:37:00.886Z,100.00
2019-03-05T22:39:27.200Z,100.00
2019-03-05T22:41:53.503Z,100.00
2019-03-05T22:44:19.810Z,100.00
2019-03-05T22:46:46.122Z,100.00
2019-03-05T22:49:12.434Z,100.00
2019-03-05T22:51:38.757Z,100.00
2019-03-05T22:54:05.067Z,100.00
2019-03-05T22:56:31.388Z,100.00
2019-03-05T22:58:57.739Z,100.00
2019-03-05T23:01:24.069Z,100.00
2019-03-05T23:03:50.469Z,100.00
2019-03-05T23:06:16.784Z,100.00
2019-03-05T23:08:43.098Z,100.00
2019-03-05T23:11:09.415Z,100.00
2019-03-05T23:13:35.730Z,100.00
2019-03-05T23:16:02.040Z,100.00
2019-03-05T23:18:28.356Z,100.00
2019-03-05T23:20:54.673Z,100.00
2019-03-05T23:23:20.985Z,100.00
2019-03-05T23:25:47.299Z,100.00
2019-03-05T23:28:13.736Z,100.00
2019-03-05T23:30:40.046Z,100.00
2019-03-05T23:33:06.371Z,100.00
2019-03-05T23:35:32.689Z,100.00
2019-03-05T23:37:59.002Z,100.00
2019-03-05T23:40:25.309Z,100.00
2019-03-05T23:42:51.627Z,100.00
2019-03-05T23:45:17.940Z,100.00
2019-03-05T23:47:44.252Z,100.00
2019-03-05T23:50:10.562Z,100.00
2019-03-05T23:52:36.877Z,100.00
2019-03-05T23:55:03.214Z,100.00
2019-03-05T23:57:29.523Z,100.00
2019-03-05T23:59:55.838Z,100.00
